sensor_id;sensor_type;location;lat;lon;timestamp;pressure;altitude;pressure_sealevel;temperature;humidity
5146;BME280;2591;48.144;15.152;2023-04-01T00:00:19;75146.63;;;-144.65;100.00
5146;BME280;2591;48.144;15.152;2023-04-01T00:02:47;75148.66;;;-144.65;100.00
5146;BME280;2591;48.144;15.152;2023-04-01T00:05:15;75142.53;;;-144.65;100.00
5146;BME280;2591;48.144;15.152;2023-04-01T00:07:44;75148.66;;;-144.65;100.00
5146;BME280;2591;48.144;15.152;2023-04-01T00:10:12;75140.50;;;-144.65;100.00
5146;BME280;2591;48.144;15.152;2023-04-01T00:12:41;75140.50;;;-144.65;100.00
5146;BME280;2591;48.144;15.152;2023-04-01T00:15:11;75140.50;;;-144.65;100.00
5146;BME280;2591;48.144;15.152;2023-04-01T00:17:40;75132.34;;;-144.65;100.00
5146;BME280;2591;48.144;15.152;2023-04-01T00:20:09;75142.53;;;-144.65;100.00
5146;BME280;2591;48.144;15.152;2023-04-01T00:22:37;75142.53;;;-144.65;100.00
5146;BME280;2591;48.144;15.152;2023-04-01T00:25:05;75146.63;;;-144.65;100.00
5146;BME280;2591;48.144;15.152;2023-04-01T00:27:33;75144.59;;;-144.65;100.00
5146;BME280;2591;48.144;15.152;2023-04-01T00:30:01;75152.75;;;-144.65;100.00
5146;BME280;2591;48.144;15.152;2023-04-01T00:32:29;75152.75;;;-144.65;100.00
5146;BME280;2591;48.144;15.152;2023-04-01T00:34:59;75152.75;;;-144.65;100.00
5146;BME280;2591;48.144;15.152;2023-04-01T00:37:27;75156.81;;;-144.65;100.00
5146;BME280;2591;48.144;15.152;2023-04-01T00:39:56;75156.81;;;-144.65;100.00
5146;BME280;2591;48.144;15.152;2023-04-01T00:42:25;75160.88;;;-144.65;100.00
5146;BME280;2591;48.144;15.152;2023-04-01T00:44:54;75164.97;;;-144.65;100.00
5146;BME280;2591;48.144;15.152;2023-04-01T00:47:24;75164.97;;;-144.65;100.00
5146;BME280;2591;48.144;15.152;2023-04-01T00:49:54;75181.28;;;-144.65;100.00
5146;BME280;2591;48.144;15.152;2023-04-01T00:52:25;75169.03;;;-144.65;100.00
5146;BME280;2591;48.144;15.152;2023-04-01T00:54:56;75167.00;;;-144.65;100.00
5146;BME280;2591;48.144;15.152;2023-04-01T00:57:31;75162.94;;;-144.65;100.00
5146;BME280;2591;48.144;15.152;2023-04-01T01:00:05;75175.16;;;-144.65;100.00
5146;BME280;2591;48.144;15.152;2023-04-01T01:02:34;75173.13;;;-144.65;100.00
5146;BME280;2591;48.144;15.152;2023-04-01T01:05:03;75183.31;;;-144.65;100.00
5146;BME280;2591;48.144;15.152;2023-04-01T01:07:38;75189.44;;;-144.65;100.00
5146;BME280;2591;48.144;15.152;2023-04-01T01:10:14;75187.38;;;-144.65;100.00
5146;BME280;2591;48.144;15.152;2023-04-01T01:12:46;75185.34;;;-144.65;100.00
5146;BME280;2591;48.144;15.152;2023-04-01T01:15:20;75191.47;;;-144.65;100.00
5146;BME280;2591;48.144;15.152;2023-04-01T01:17:57;75193.50;;;-144.65;100.00
5146;BME280;2591;48.144;15.152;2023-04-01T01:20:48;75197.56;;;-144.65;100.00
5146;BME280;2591;48.144;15.152;2023-04-01T01:23:40;75207.78;;;-144.65;100.00
5146;BME280;2591;48.144;15.152;2023-04-01T01:26:29;75213.88;;;-144.65;100.00
5146;BME280;2591;48.144;15.152;2023-04-01T01:29:11;75217.97;;;-144.65;100.00
5146;BME280;2591;48.144;15.152;2023-04-01T01:31:51;75217.97;;;-144.65;100.00
5146;BME280;2591;48.144;15.152;2023-04-01T01:34:27;75220.00;;;-144.65;100.00
5146;BME280;2591;48.144;15.152;2023-04-01T01:37:01;75226.13;;;-144.65;100.00
5146;BME280;2591;48.144;15.152;2023-04-01T01:39:33;75228.16;;;-144.65;100.00
5146;BME280;2591;48.144;15.152;2023-04-01T01:42:04;75234.28;;;-144.65;100.00
5146;BME280;2591;48.144;15.152;2023-04-01T01:44:34;75226.13;;;-144.65;100.00
5146;BME280;2591;48.144;15.152;2023-04-01T01:47:03;75222.03;;;-144.65;100.00
5146;BME280;2591;48.144;15.152;2023-04-01T01:49:33;75222.03;;;-144.65;100.00
5146;BME280;2591;48.144;15.152;2023-04-01T01:52:04;75226.13;;;-144.65;100.00
5146;BME280;2591;48.144;15.152;2023-04-01T01:54:32;75232.22;;;-144.65;100.00
5146;BME280;2591;48.144;15.152;2023-04-01T01:57:04;75224.06;;;-144.65;100.00
5146;BME280;2591;48.144;15.152;2023-04-01T01:59:35;75222.03;;;-144.65;100.00
5146;BME280;2591;48.144;15.152;2023-04-01T02:02:06;75234.28;;;-144.65;100.00
5146;BME280;2591;48.144;15.152;2023-04-01T02:04:37;75226.13;;;-144.65;100.00
5146;BME280;2591;48.144;15.152;2023-04-01T02:07:10;75226.13;;;-144.65;100.00
5146;BME280;2591;48.144;15.152;2023-04-01T02:09:40;75234.28;;;-144.65;100.00
5146;BME280;2591;48.144;15.152;2023-04-01T02:12:12;75236.31;;;-144.65;100.00
5146;BME280;2591;48.144;15.152;2023-04-01T02:14:43;75238.34;;;-144.65;100.00
5146;BME280;2591;48.144;15.152;2023-04-01T02:17:15;75244.47;;;-144.65;100.00
5146;BME280;2591;48.144;15.152;2023-04-01T02:19:48;75246.50;;;-144.65;100.00
5146;BME280;2591;48.144;15.152;2023-04-01T02:22:21;75244.47;;;-144.65;100.00
5146;BME280;2591;48.144;15.152;2023-04-01T02:24:52;75242.41;;;-144.65;100.00
5146;BME280;2591;48.144;15.152;2023-04-01T02:27:21;75234.28;;;-144.65;100.00
5146;BME280;2591;48.144;15.152;2023-04-01T02:29:49;75238.34;;;-144.65;100.00
5146;BME280;2591;48.144;15.152;2023-04-01T02:32:19;75238.34;;;-144.65;100.00
5146;BME280;2591;48.144;15.152;2023-04-01T02:34:48;75240.38;;;-144.65;100.00
5146;BME280;2591;48.144;15.152;2023-04-01T02:37:16;75246.50;;;-144.65;100.00
5146;BME280;2591;48.144;15.152;2023-04-01T02:39:46;75246.50;;;-144.65;100.00
5146;BME280;2591;48.144;15.152;2023-04-01T02:42:14;75252.63;;;-144.65;100.00
5146;BME280;2591;48.144;15.152;2023-04-01T02:44:42;75246.50;;;-144.65;100.00
5146;BME280;2591;48.144;15.152;2023-04-01T02:47:10;75250.56;;;-144.65;100.00
5146;BME280;2591;48.144;15.152;2023-04-01T02:49:37;75258.72;;;-144.65;100.00
5146;BME280;2591;48.144;15.152;2023-04-01T02:52:05;75254.66;;;-144.65;100.00
5146;BME280;2591;48.144;15.152;2023-04-01T02:54:33;75250.56;;;-144.65;100.00
5146;BME280;2591;48.144;15.152;2023-04-01T02:57:02;75252.63;;;-144.65;100.00
5146;BME280;2591;48.144;15.152;2023-04-01T02:59:30;75244.47;;;-144.65;100.00
5146;BME280;2591;48.144;15.152;2023-04-01T03:01:58;75246.50;;;-144.65;100.00
5146;BME280;2591;48.144;15.152;2023-04-01T03:04:25;75250.56;;;-144.65;100.00
5146;BME280;2591;48.144;15.152;2023-04-01T03:06:53;75250.56;;;-144.65;100.00
5146;BME280;2591;48.144;15.152;2023-04-01T03:09:21;75250.56;;;-144.65;100.00
5146;BME280;2591;48.144;15.152;2023-04-01T03:11:49;75254.66;;;-144.65;100.00
5146;BME280;2591;48.144;15.152;2023-04-01T03:14:18;75252.63;;;-144.65;100.00
5146;BME280;2591;48.144;15.152;2023-04-01T03:16:46;75250.56;;;-144.65;100.00
5146;BME280;2591;48.144;15.152;2023-04-01T03:19:14;75254.66;;;-144.65;100.00
5146;BME280;2591;48.144;15.152;2023-04-01T03:21:42;75252.63;;;-144.65;100.00
5146;BME280;2591;48.144;15.152;2023-04-01T03:24:10;75256.69;;;-144.65;100.00
5146;BME280;2591;48.144;15.152;2023-04-01T03:26:38;75254.66;;;-144.65;100.00
5146;BME280;2591;48.144;15.152;2023-04-01T03:29:06;75254.66;;;-144.65;100.00
5146;BME280;2591;48.144;15.152;2023-04-01T03:31:35;75256.69;;;-144.65;100.00
5146;BME280;2591;48.144;15.152;2023-04-01T03:34:03;75248.53;;;-144.65;100.00
5146;BME280;2591;48.144;15.152;2023-04-01T03:36:31;75256.69;;;-144.65;100.00
5146;BME280;2591;48.144;15.152;2023-04-01T03:38:59;75254.66;;;-144.65;100.00
5146;BME280;2591;48.144;15.152;2023-04-01T03:41:26;75258.72;;;-144.65;100.00
5146;BME280;2591;48.144;15.152;2023-04-01T03:43:54;75268.91;;;-144.65;100.00
5146;BME280;2591;48.144;15.152;2023-04-01T03:46:22;75270.97;;;-144.65;100.00
5146;BME280;2591;48.144;15.152;2023-04-01T03:48:51;75270.97;;;-144.65;100.00
5146;BME280;2591;48.144;15.152;2023-04-01T03:51:19;75262.81;;;-144.65;100.00
5146;BME280;2591;48.144;15.152;2023-04-01T03:53:48;75266.88;;;-144.65;100.00
5146;BME280;2591;48.144;15.152;2023-04-01T03:56:16;75258.72;;;-144.65;100.00
5146;BME280;2591;48.144;15.152;2023-04-01T03:58:44;75260.75;;;-144.65;100.00
5146;BME280;2591;48.144;15.152;2023-04-01T04:01:17;75254.66;;;-144.65;100.00
5146;BME280;2591;48.144;15.152;2023-04-01T04:03:45;75258.72;;;-144.65;100.00
5146;BME280;2591;48.144;15.152;2023-04-01T04:06:14;75254.66;;;-144.65;100.00
5146;BME280;2591;48.144;15.152;2023-04-01T04:08:43;75250.56;;;-144.65;100.00
5146;BME280;2591;48.144;15.152;2023-04-01T04:11:10;75262.81;;;-144.65;100.00
5146;BME280;2591;48.144;15.152;2023-04-01T04:13:38;75258.72;;;-144.65;100.00
5146;BME280;2591;48.144;15.152;2023-04-01T04:16:07;75275.03;;;-144.65;100.00
5146;BME280;2591;48.144;15.152;2023-04-01T04:18:35;75277.06;;;-144.65;100.00
5146;BME280;2591;48.144;15.152;2023-04-01T04:21:03;75287.25;;;-144.65;100.00
5146;BME280;2591;48.144;15.152;2023-04-01T04:23:32;75287.25;;;-144.65;100.00
5146;BME280;2591;48.144;15.152;2023-04-01T04:26:02;75289.31;;;-144.65;100.00
5146;BME280;2591;48.144;15.152;2023-04-01T04:28:31;75285.22;;;-144.65;100.00
5146;BME280;2591;48.144;15.152;2023-04-01T04:31:00;75287.25;;;-144.65;100.00
5146;BME280;2591;48.144;15.152;2023-04-01T04:33:28;75291.34;;;-144.65;100.00
5146;BME280;2591;48.144;15.152;2023-04-01T04:35:57;75297.47;;;-144.65;100.00
5146;BME280;2591;48.144;15.152;2023-04-01T04:38:26;75295.41;;;-144.65;100.00
5146;BME280;2591;48.144;15.152;2023-04-01T04:40:55;75293.38;;;-144.65;100.00
5146;BME280;2591;48.144;15.152;2023-04-01T04:43:23;75287.25;;;-144.65;100.00
5146;BME280;2591;48.144;15.152;2023-04-01T04:45:51;75291.34;;;-144.65;100.00
5146;BME280;2591;48.144;15.152;2023-04-01T04:48:19;75287.25;;;-144.65;100.00
5146;BME280;2591;48.144;15.152;2023-04-01T04:50:48;75285.22;;;-144.65;100.00
5146;BME280;2591;48.144;15.152;2023-04-01T04:53:17;75283.19;;;-144.65;100.00
5146;BME280;2591;48.144;15.152;2023-04-01T04:55:47;75277.06;;;-144.65;100.00
5146;BME280;2591;48.144;15.152;2023-04-01T04:58:17;75262.81;;;-144.65;100.00
5146;BME280;2591;48.144;15.152;2023-04-01T05:00:45;75266.88;;;-144.65;100.00
5146;BME280;2591;48.144;15.152;2023-04-01T05:03:13;75254.66;;;-144.65;100.00
5146;BME280;2591;48.144;15.152;2023-04-01T05:05:48;75254.66;;;-144.65;100.00
5146;BME280;2591;48.144;15.152;2023-04-01T05:08:16;75252.63;;;-144.65;100.00
5146;BME280;2591;48.144;15.152;2023-04-01T05:10:44;75248.53;;;-144.65;100.00
5146;BME280;2591;48.144;15.152;2023-04-01T05:13:12;75250.56;;;-144.65;100.00
5146;BME280;2591;48.144;15.152;2023-04-01T05:15:41;75244.47;;;-144.65;100.00
5146;BME280;2591;48.144;15.152;2023-04-01T05:18:09;75242.41;;;-144.65;100.00
5146;BME280;2591;48.144;15.152;2023-04-01T05:20:37;75242.41;;;-144.65;100.00
5146;BME280;2591;48.144;15.152;2023-04-01T05:23:04;75242.41;;;-144.65;100.00
5146;BME280;2591;48.144;15.152;2023-04-01T05:25:32;75240.38;;;-144.65;100.00
5146;BME280;2591;48.144;15.152;2023-04-01T05:28:01;75234.28;;;-144.65;100.00
5146;BME280;2591;48.144;15.152;2023-04-01T05:30:28;75226.13;;;-144.65;100.00
5146;BME280;2591;48.144;15.152;2023-04-01T05:32:58;75222.03;;;-144.65;100.00
5146;BME280;2591;48.144;15.152;2023-04-01T05:35:26;75222.03;;;-144.65;100.00
5146;BME280;2591;48.144;15.152;2023-04-01T05:37:53;75215.91;;;-144.65;100.00
5146;BME280;2591;48.144;15.152;2023-04-01T05:40:21;75213.88;;;-144.65;100.00
5146;BME280;2591;48.144;15.152;2023-04-01T05:42:50;75217.97;;;-144.65;100.00
5146;BME280;2591;48.144;15.152;2023-04-01T05:45:17;75217.97;;;-144.65;100.00
5146;BME280;2591;48.144;15.152;2023-04-01T05:47:45;75217.97;;;-144.65;100.00
5146;BME280;2591;48.144;15.152;2023-04-01T05:50:15;75217.97;;;-144.65;100.00
5146;BME280;2591;48.144;15.152;2023-04-01T05:52:42;75209.81;;;-144.65;100.00
5146;BME280;2591;48.144;15.152;2023-04-01T05:55:11;75213.88;;;-144.65;100.00
5146;BME280;2591;48.144;15.152;2023-04-01T05:57:39;75213.88;;;-144.65;100.00
5146;BME280;2591;48.144;15.152;2023-04-01T06:00:08;75201.66;;;-144.65;100.00
5146;BME280;2591;48.144;15.152;2023-04-01T06:02:37;75205.72;;;-144.65;100.00
5146;BME280;2591;48.144;15.152;2023-04-01T06:05:13;75205.72;;;-144.65;100.00
5146;BME280;2591;48.144;15.152;2023-04-01T06:07:43;75201.66;;;-144.65;100.00
5146;BME280;2591;48.144;15.152;2023-04-01T06:10:16;75187.38;;;-144.65;100.00
5146;BME280;2591;48.144;15.152;2023-04-01T06:12:50;75193.50;;;-144.65;100.00
5146;BME280;2591;48.144;15.152;2023-04-01T06:15:25;75187.38;;;-144.65;100.00
5146;BME280;2591;48.144;15.152;2023-04-01T06:18:30;75173.13;;;-144.65;100.00
5146;BME280;2591;48.144;15.152;2023-04-01T06:21:10;75164.97;;;-144.65;100.00
5146;BME280;2591;48.144;15.152;2023-04-01T06:23:58;75148.66;;;-144.65;100.00
5146;BME280;2591;48.144;15.152;2023-04-01T06:26:35;75138.47;;;-144.65;100.00
5146;BME280;2591;48.144;15.152;2023-04-01T06:29:17;75124.19;;;-144.65;100.00
5146;BME280;2591;48.144;15.152;2023-04-01T06:32:02;75111.97;;;-144.65;100.00
5146;BME280;2591;48.144;15.152;2023-04-01T06:34:49;75107.91;;;-144.65;100.00
5146;BME280;2591;48.144;15.152;2023-04-01T06:37:27;75095.66;;;-144.65;100.00
5146;BME280;2591;48.144;15.152;2023-04-01T06:40:17;75079.38;;;-144.65;100.00
5146;BME280;2591;48.144;15.152;2023-04-01T06:43:00;75052.88;;;-144.65;100.00
5146;BME280;2591;48.144;15.152;2023-04-01T06:45:39;75026.38;;;-144.65;100.00
5146;BME280;2591;48.144;15.152;2023-04-01T06:48:22;75018.22;;;-144.65;100.00
5146;BME280;2591;48.144;15.152;2023-04-01T06:51:01;75001.91;;;-144.65;94.89
5146;BME280;2591;48.144;15.152;2023-04-01T06:53:38;75022.28;;;-144.65;92.31
5146;BME280;2591;48.144;15.152;2023-04-01T06:56:15;75016.19;;;-144.65;92.05
5146;BME280;2591;48.144;15.152;2023-04-01T06:58:46;74991.72;;;-144.65;91.75
5146;BME280;2591;48.144;15.152;2023-04-01T07:01:20;74975.41;;;-144.65;91.07
5146;BME280;2591;48.144;15.152;2023-04-01T07:03:52;74965.22;;;-144.65;89.94
5146;BME280;2591;48.144;15.152;2023-04-01T07:06:25;74955.03;;;-144.65;88.53
5146;BME280;2591;48.144;15.152;2023-04-01T07:08:55;74936.69;;;-144.65;89.88
5146;BME280;2591;48.144;15.152;2023-04-01T07:11:33;74910.19;;;-144.65;85.80
5146;BME280;2591;48.144;15.152;2023-04-01T07:14:03;74922.44;;;-144.65;83.65
5146;BME280;2591;48.144;15.152;2023-04-01T07:16:36;74963.19;;;-144.65;84.30
5146;BME280;2591;48.144;15.152;2023-04-01T07:19:12;74965.22;;;-144.65;85.58
5146;BME280;2591;48.144;15.152;2023-04-01T07:21:47;74967.25;;;-144.65;86.72
5146;BME280;2591;48.144;15.152;2023-04-01T07:24:20;74967.25;;;-144.65;86.09
5146;BME280;2591;48.144;15.152;2023-04-01T07:26:53;74969.31;;;-144.65;86.54
5146;BME280;2591;48.144;15.152;2023-04-01T07:29:22;74957.06;;;-144.65;87.98
5146;BME280;2591;48.144;15.152;2023-04-01T07:35:00;74928.53;;;-144.65;88.02
5146;BME280;2591;48.144;15.152;2023-04-01T07:37:39;74908.16;;;-144.65;89.04
5146;BME280;2591;48.144;15.152;2023-04-01T07:40:19;74887.78;;;-144.65;87.38
5146;BME280;2591;48.144;15.152;2023-04-01T07:43:07;74873.50;;;-144.65;85.96
5146;BME280;2591;48.144;15.152;2023-04-01T07:45:41;74838.88;;;-144.65;84.01
5146;BME280;2591;48.144;15.152;2023-04-01T07:48:22;74824.59;;;-144.65;82.68
5146;BME280;2591;48.144;15.152;2023-04-01T07:50:59;74830.72;;;-144.65;80.96
5146;BME280;2591;48.144;15.152;2023-04-01T07:53:35;74814.41;;;-144.65;82.74
5146;BME280;2591;48.144;15.152;2023-04-01T07:56:06;74798.09;;;-144.65;80.35
5146;BME280;2591;48.144;15.152;2023-04-01T07:58:47;74804.22;;;-144.65;79.02
5146;BME280;2591;48.144;15.152;2023-04-01T08:01:25;74814.41;;;-144.65;77.61
5146;BME280;2591;48.144;15.152;2023-04-01T08:04:18;74814.41;;;-144.65;79.25
5146;BME280;2591;48.144;15.152;2023-04-01T08:06:52;74781.81;;;-144.65;83.52
5146;BME280;2591;48.144;15.152;2023-04-01T08:09:30;74777.72;;;-144.65;78.71
5146;BME280;2591;48.144;15.152;2023-04-01T08:12:10;74781.81;;;-144.65;78.26
5146;BME280;2591;48.144;15.152;2023-04-01T08:14:52;74806.25;;;-144.65;76.21
5146;BME280;2591;48.144;15.152;2023-04-01T08:17:29;74824.59;;;-144.65;75.85
5146;BME280;2591;48.144;15.152;2023-04-01T08:20:14;74842.94;;;-144.65;77.05
5146;BME280;2591;48.144;15.152;2023-04-01T08:22:49;74836.81;;;-144.65;77.10
5146;BME280;2591;48.144;15.152;2023-04-01T08:25:22;74849.06;;;-144.65;78.06
5146;BME280;2591;48.144;15.152;2023-04-01T08:27:54;74847.00;;;-144.65;78.54
5146;BME280;2591;48.144;15.152;2023-04-01T08:30:28;74863.31;;;-144.65;78.13
5146;BME280;2591;48.144;15.152;2023-04-01T08:33:00;74847.00;;;-144.65;79.55
5146;BME280;2591;48.144;15.152;2023-04-01T08:35:37;74838.88;;;-144.65;79.01
5146;BME280;2591;48.144;15.152;2023-04-01T08:38:11;74836.81;;;-144.65;80.41
5146;BME280;2591;48.144;15.152;2023-04-01T08:40:59;74842.94;;;-144.65;79.47
5146;BME280;2591;48.144;15.152;2023-04-01T08:43:51;74842.94;;;-144.65;78.71
5146;BME280;2591;48.144;15.152;2023-04-01T08:46:46;74814.41;;;-144.65;76.87
5146;BME280;2591;48.144;15.152;2023-04-01T08:49:35;74832.75;;;-144.65;76.95
5146;BME280;2591;48.144;15.152;2023-04-01T08:52:18;74855.16;;;-144.65;77.64
5146;BME280;2591;48.144;15.152;2023-04-01T08:55:01;74847.00;;;-144.65;77.62
5146;BME280;2591;48.144;15.152;2023-04-01T08:57:40;74818.47;;;-144.65;80.00
5146;BME280;2591;48.144;15.152;2023-04-01T09:00:24;74798.09;;;-144.65;77.77
5146;BME280;2591;48.144;15.152;2023-04-01T09:03:31;74800.16;;;-144.65;78.47
5146;BME280;2591;48.144;15.152;2023-04-01T09:06:19;74792.00;;;-144.65;79.20
5146;BME280;2591;48.144;15.152;2023-04-01T09:09:09;74765.50;;;-144.65;79.45
5146;BME280;2591;48.144;15.152;2023-04-01T09:12:01;74751.22;;;-144.65;77.29
5146;BME280;2591;48.144;15.152;2023-04-01T09:14:40;74724.75;;;-144.65;75.68
5146;BME280;2591;48.144;15.152;2023-04-01T09:17:35;74708.44;;;-144.65;73.39
5146;BME280;2591;48.144;15.152;2023-04-01T09:20:18;74710.47;;;-144.65;73.15
5146;BME280;2591;48.144;15.152;2023-04-01T09:23:03;74714.53;;;-144.65;71.52
5146;BME280;2591;48.144;15.152;2023-04-01T09:25:53;74712.50;;;-144.65;68.50
5146;BME280;2591;48.144;15.152;2023-04-01T09:28:28;74710.47;;;-144.65;67.14
5146;BME280;2591;48.144;15.152;2023-04-01T09:31:13;74675.81;;;-144.65;67.70
5146;BME280;2591;48.144;15.152;2023-04-01T09:34:13;74663.59;;;-144.65;68.22
5146;BME280;2591;48.144;15.152;2023-04-01T09:36:54;74618.75;;;-144.65;66.30
5146;BME280;2591;48.144;15.152;2023-04-01T09:39:36;74618.75;;;-144.65;64.64
5146;BME280;2591;48.144;15.152;2023-04-01T09:42:23;74673.78;;;-144.65;63.34
5146;BME280;2591;48.144;15.152;2023-04-01T09:44:57;74708.44;;;-144.65;64.60
5146;BME280;2591;48.144;15.152;2023-04-01T09:47:42;74700.28;;;-144.65;63.27
5146;BME280;2591;48.144;15.152;2023-04-01T09:50:21;74724.75;;;-144.65;63.90
5146;BME280;2591;48.144;15.152;2023-04-01T09:53:04;74720.66;;;-144.65;64.02
5146;BME280;2591;48.144;15.152;2023-04-01T09:56:01;74724.75;;;-144.65;65.01
5146;BME280;2591;48.144;15.152;2023-04-01T10:02:08;74704.34;;;-144.65;64.65
5146;BME280;2591;48.144;15.152;2023-04-01T10:05:04;74724.75;;;-144.65;64.75
5146;BME280;2591;48.144;15.152;2023-04-01T10:07:55;74743.06;;;-144.65;65.97
5146;BME280;2591;48.144;15.152;2023-04-01T10:14:11;74732.88;;;-144.65;66.42
5146;BME280;2591;48.144;15.152;2023-04-01T10:17:08;74728.81;;;-144.65;66.36
5146;BME280;2591;48.144;15.152;2023-04-01T10:20:12;74704.34;;;-144.65;65.16
5146;BME280;2591;48.144;15.152;2023-04-01T10:23:00;74704.34;;;-144.65;64.29
5146;BME280;2591;48.144;15.152;2023-04-01T10:25:56;74718.63;;;-144.65;64.22
5146;BME280;2591;48.144;15.152;2023-04-01T10:32:12;74753.28;;;-144.65;64.33
5146;BME280;2591;48.144;15.152;2023-04-01T10:35:00;74765.50;;;-144.65;64.80
5146;BME280;2591;48.144;15.152;2023-04-01T10:40:48;74751.22;;;-144.65;65.13
5146;BME280;2591;48.144;15.152;2023-04-01T10:43:43;74765.50;;;-144.65;65.32
5146;BME280;2591;48.144;15.152;2023-04-01T10:50:04;74724.75;;;-144.65;65.98
5146;BME280;2591;48.144;15.152;2023-04-01T10:59:10;74598.38;;;-144.65;63.30
5146;BME280;2591;48.144;15.152;2023-04-01T11:02:05;74553.56;;;-144.65;63.43
5146;BME280;2591;48.144;15.152;2023-04-01T11:08:06;74594.31;;;-144.65;62.85
5146;BME280;2591;48.144;15.152;2023-04-01T11:11:24;74590.22;;;-144.65;62.97
5146;BME280;2591;48.144;15.152;2023-04-01T11:14:21;74539.28;;;-144.65;61.54
5146;BME280;2591;48.144;15.152;2023-04-01T11:17:33;74520.94;;;-144.65;61.29
5146;BME280;2591;48.144;15.152;2023-04-01T11:20:31;74492.41;;;-144.65;60.99
5146;BME280;2591;48.144;15.152;2023-04-01T11:23:19;74423.13;;;-144.65;58.68
5146;BME280;2591;48.144;15.152;2023-04-01T11:26:02;74443.50;;;-144.65;57.33
5146;BME280;2591;48.144;15.152;2023-04-01T11:28:50;74445.53;;;-144.65;57.76
5146;BME280;2591;48.144;15.152;2023-04-01T11:31:36;74441.47;;;-144.65;58.25
5146;BME280;2591;48.144;15.152;2023-04-01T11:34:18;74421.09;;;-144.65;59.73
5146;BME280;2591;48.144;15.152;2023-04-01T11:36:59;74341.63;;;-144.65;56.02
5146;BME280;2591;48.144;15.152;2023-04-01T11:39:34;74390.53;;;-144.65;56.98
5146;BME280;2591;48.144;15.152;2023-04-01T11:42:17;74402.75;;;-144.65;57.74
5146;BME280;2591;48.144;15.152;2023-04-01T11:44:54;74408.88;;;-144.65;56.30
5146;BME280;2591;48.144;15.152;2023-04-01T11:50:52;74439.44;;;-144.65;56.30
5146;BME280;2591;48.144;15.152;2023-04-01T11:53:35;74500.56;;;-144.65;57.32
5146;BME280;2591;48.144;15.152;2023-04-01T11:56:13;74500.56;;;-144.65;57.05
5146;BME280;2591;48.144;15.152;2023-04-01T11:58:56;74484.25;;;-144.65;57.19
5146;BME280;2591;48.144;15.152;2023-04-01T12:01:53;74502.59;;;-144.65;57.18
5146;BME280;2591;48.144;15.152;2023-04-01T12:04:33;74482.22;;;-144.65;57.27
5146;BME280;2591;48.144;15.152;2023-04-01T12:07:14;74431.28;;;-144.65;57.16
5146;BME280;2591;48.144;15.152;2023-04-01T12:09:48;74374.22;;;-144.65;55.91
5146;BME280;2591;48.144;15.152;2023-04-01T12:12:27;74345.69;;;-144.65;55.27
5146;BME280;2591;48.144;15.152;2023-04-01T12:15:05;74382.38;;;-144.65;55.88
5146;BME280;2591;48.144;15.152;2023-04-01T12:17:46;74398.69;;;-144.65;55.72
5146;BME280;2591;48.144;15.152;2023-04-01T12:20:26;74437.41;;;-144.65;57.09
5146;BME280;2591;48.144;15.152;2023-04-01T12:23:05;74427.22;;;-144.65;56.80
5146;BME280;2591;48.144;15.152;2023-04-01T12:28:41;74374.22;;;-144.65;55.99
5146;BME280;2591;48.144;15.152;2023-04-01T12:31:25;74359.97;;;-144.65;53.98
5146;BME280;2591;48.144;15.152;2023-04-01T12:34:13;74386.44;;;-144.65;55.93
5146;BME280;2591;48.144;15.152;2023-04-01T12:36:59;74345.69;;;-144.65;55.14
5146;BME280;2591;48.144;15.152;2023-04-01T12:39:48;74317.16;;;-144.65;55.11
5146;BME280;2591;48.144;15.152;2023-04-01T12:42:32;74298.81;;;-144.65;53.11
5146;BME280;2591;48.144;15.152;2023-04-01T12:45:35;74317.16;;;-144.65;53.17
5146;BME280;2591;48.144;15.152;2023-04-01T12:48:26;74325.31;;;-144.65;53.40
5146;BME280;2591;48.144;15.152;2023-04-01T12:51:10;74298.81;;;-144.65;52.94
5146;BME280;2591;48.144;15.152;2023-04-01T12:54:11;74272.34;;;-144.65;52.65
5146;BME280;2591;48.144;15.152;2023-04-01T12:56:48;74266.22;;;-144.65;52.67
5146;BME280;2591;48.144;15.152;2023-04-01T12:59:33;74243.81;;;-144.65;53.88
5146;BME280;2591;48.144;15.152;2023-04-01T13:02:13;74251.97;;;-144.65;52.24
5146;BME280;2591;48.144;15.152;2023-04-01T13:04:59;74280.50;;;-144.65;53.07
5146;BME280;2591;48.144;15.152;2023-04-01T13:07:49;74262.16;;;-144.65;53.17
5146;BME280;2591;48.144;15.152;2023-04-01T13:10:30;74258.06;;;-144.65;53.28
5146;BME280;2591;48.144;15.152;2023-04-01T13:13:16;74239.72;;;-144.65;52.38
5146;BME280;2591;48.144;15.152;2023-04-01T13:15:50;74215.28;;;-144.65;52.05
5146;BME280;2591;48.144;15.152;2023-04-01T13:18:27;74192.88;;;-144.65;51.97
5146;BME280;2591;48.144;15.152;2023-04-01T13:21:04;74180.63;;;-144.65;50.64
5146;BME280;2591;48.144;15.152;2023-04-01T13:23:46;74211.22;;;-144.65;51.44
5146;BME280;2591;48.144;15.152;2023-04-01T13:26:26;74239.72;;;-144.65;51.70
5146;BME280;2591;48.144;15.152;2023-04-01T13:28:59;74247.88;;;-144.65;52.15
5146;BME280;2591;48.144;15.152;2023-04-01T13:31:36;74284.56;;;-144.65;52.63
5146;BME280;2591;48.144;15.152;2023-04-01T13:34:28;74325.31;;;-144.65;52.89
5146;BME280;2591;48.144;15.152;2023-04-01T13:37:09;74349.78;;;-144.65;53.33
5146;BME280;2591;48.144;15.152;2023-04-01T13:39:54;74386.44;;;-144.65;52.49
5146;BME280;2591;48.144;15.152;2023-04-01T13:42:28;74439.44;;;-144.65;53.86
5146;BME280;2591;48.144;15.152;2023-04-01T13:45:01;74512.78;;;-144.65;55.84
5146;BME280;2591;48.144;15.152;2023-04-01T13:48:04;74655.44;;;-144.65;65.21
5146;BME280;2591;48.144;15.152;2023-04-01T13:50:58;74745.13;;;-144.65;71.70
5146;BME280;2591;48.144;15.152;2023-04-01T13:54:04;74783.84;;;-144.65;77.38
5146;BME280;2591;48.144;15.152;2023-04-01T13:56:44;74810.34;;;-144.65;82.34
5146;BME280;2591;48.144;15.152;2023-04-01T13:59:48;74808.28;;;-144.65;85.12
5146;BME280;2591;48.144;15.152;2023-04-01T14:02:34;74800.16;;;-144.65;83.99
5146;BME280;2591;48.144;15.152;2023-04-01T14:05:26;74794.03;;;-144.65;86.21
5146;BME280;2591;48.144;15.152;2023-04-01T14:08:16;74785.88;;;-144.65;86.17
5146;BME280;2591;48.144;15.152;2023-04-01T14:10:50;74771.59;;;-144.65;86.04